sensor_id;sensor_type;location;lat;lon;timestamp;P1;durP1;ratioP1;P2;durP2;ratioP2
75837;SDS011;64480;52.040;113.502;2023-01-29T00:00:26;12.95;;;4.32;;
75837;SDS011;64480;52.040;113.502;2023-01-29T00:03:33;11.48;;;4.80;;
75837;SDS011;64480;52.040;113.502;2023-01-29T00:06:38;18.67;;;7.88;;
75837;SDS011;64480;52.040;113.502;2023-01-29T00:09:42;21.38;;;8.68;;
75837;SDS011;64480;52.040;113.502;2023-01-29T00:12:47;15.05;;;6.53;;
75837;SDS011;64480;52.040;113.502;2023-01-29T00:15:52;10.98;;;5.32;;
75837;SDS011;64480;52.040;113.502;2023-01-29T00:19:04;20.63;;;6.38;;
75837;SDS011;64480;52.040;113.502;2023-01-29T00:22:07;27.02;;;7.57;;
75837;SDS011;64480;52.040;113.502;2023-01-29T00:25:11;22.40;;;6.47;;
75837;SDS011;64480;52.040;113.502;2023-01-29T00:28:18;27.83;;;7.97;;
75837;SDS011;64480;52.040;113.502;2023-01-29T00:31:26;33.50;;;9.35;;
75837;SDS011;64480;52.040;113.502;2023-01-29T00:34:31;59.58;;;14.77;;
75837;SDS011;64480;52.040;113.502;2023-01-29T00:37:37;38.17;;;10.63;;
75837;SDS011;64480;52.040;113.502;2023-01-29T00:40:43;40.90;;;9.90;;
75837;SDS011;64480;52.040;113.502;2023-01-29T00:44:06;34.95;;;9.80;;
75837;SDS011;64480;52.040;113.502;2023-01-29T00:47:29;26.35;;;8.30;;
75837;SDS011;64480;52.040;113.502;2023-01-29T00:50:32;30.77;;;11.02;;
75837;SDS011;64480;52.040;113.502;2023-01-29T00:53:36;21.50;;;8.00;;
75837;SDS011;64480;52.040;113.502;2023-01-29T00:56:40;20.63;;;6.88;;
75837;SDS011;64480;52.040;113.502;2023-01-29T00:59:48;18.52;;;7.28;;
75837;SDS011;64480;52.040;113.502;2023-01-29T01:02:54;18.67;;;6.00;;
75837;SDS011;64480;52.040;113.502;2023-01-29T01:06:09;21.27;;;7.93;;
75837;SDS011;64480;52.040;113.502;2023-01-29T01:09:15;18.92;;;7.38;;
75837;SDS011;64480;52.040;113.502;2023-01-29T01:12:41;22.35;;;8.38;;
75837;SDS011;64480;52.040;113.502;2023-01-29T01:15:53;17.85;;;7.40;;
75837;SDS011;64480;52.040;113.502;2023-01-29T01:18:58;25.73;;;8.15;;
75837;SDS011;64480;52.040;113.502;2023-01-29T01:22:03;26.27;;;10.45;;
75837;SDS011;64480;52.040;113.502;2023-01-29T01:25:07;20.30;;;7.57;;
75837;SDS011;64480;52.040;113.502;2023-01-29T01:28:11;18.60;;;6.75;;
75837;SDS011;64480;52.040;113.502;2023-01-29T01:31:16;19.23;;;7.70;;
75837;SDS011;64480;52.040;113.502;2023-01-29T01:34:25;17.63;;;8.20;;
75837;SDS011;64480;52.040;113.502;2023-01-29T01:37:29;29.00;;;8.55;;
75837;SDS011;64480;52.040;113.502;2023-01-29T01:40:43;21.73;;;8.45;;
75837;SDS011;64480;52.040;113.502;2023-01-29T01:43:56;27.52;;;9.35;;
75837;SDS011;64480;52.040;113.502;2023-01-29T01:47:03;23.52;;;9.27;;
75837;SDS011;64480;52.040;113.502;2023-01-29T01:50:10;40.08;;;12.68;;
75837;SDS011;64480;52.040;113.502;2023-01-29T01:57:05;42.03;;;15.38;;
75837;SDS011;64480;52.040;113.502;2023-01-29T02:01:00;58.13;;;20.02;;
75837;SDS011;64480;52.040;113.502;2023-01-29T02:04:09;138.95;;;40.78;;
75837;SDS011;64480;52.040;113.502;2023-01-29T02:07:48;94.03;;;28.83;;
75837;SDS011;64480;52.040;113.502;2023-01-29T02:11:12;145.30;;;41.05;;
75837;SDS011;64480;52.040;113.502;2023-01-29T02:14:17;142.02;;;38.50;;
75837;SDS011;64480;52.040;113.502;2023-01-29T02:18:05;148.70;;;43.88;;
75837;SDS011;64480;52.040;113.502;2023-01-29T02:21:30;131.60;;;43.35;;
75837;SDS011;64480;52.040;113.502;2023-01-29T02:33:10;60.75;;;18.85;;
75837;SDS011;64480;52.040;113.502;2023-01-29T02:36:15;56.10;;;21.85;;
75837;SDS011;64480;52.040;113.502;2023-01-29T02:49:45;37.15;;;14.07;;
75837;SDS011;64480;52.040;113.502;2023-01-29T02:54:03;34.85;;;13.20;;
75837;SDS011;64480;52.040;113.502;2023-01-29T02:57:33;34.38;;;13.15;;
75837;SDS011;64480;52.040;113.502;2023-01-29T03:00:58;22.75;;;10.68;;
75837;SDS011;64480;52.040;113.502;2023-01-29T03:04:12;22.52;;;9.88;;
75837;SDS011;64480;52.040;113.502;2023-01-29T03:07:36;32.25;;;10.73;;
75837;SDS011;64480;52.040;113.502;2023-01-29T03:11:26;28.50;;;9.70;;
75837;SDS011;64480;52.040;113.502;2023-01-29T03:14:59;32.65;;;9.55;;
75837;SDS011;64480;52.040;113.502;2023-01-29T03:19:12;20.05;;;8.00;;
75837;SDS011;64480;52.040;113.502;2023-01-29T03:23:10;24.55;;;10.02;;
75837;SDS011;64480;52.040;113.502;2023-01-29T03:26:43;25.90;;;9.85;;
75837;SDS011;64480;52.040;113.502;2023-01-29T03:30:30;25.25;;;10.13;;
75837;SDS011;64480;52.040;113.502;2023-01-29T03:34:24;29.15;;;10.35;;
75837;SDS011;64480;52.040;113.502;2023-01-29T03:37:52;23.23;;;7.13;;
75837;SDS011;64480;52.040;113.502;2023-01-29T03:41:22;14.77;;;5.35;;
75837;SDS011;64480;52.040;113.502;2023-01-29T03:49:18;13.05;;;3.85;;
75837;SDS011;64480;52.040;113.502;2023-01-29T04:00:40;13.13;;;4.45;;
75837;SDS011;64480;52.040;113.502;2023-01-29T04:04:20;17.65;;;8.13;;
75837;SDS011;64480;52.040;113.502;2023-01-29T04:07:40;14.48;;;5.47;;
75837;SDS011;64480;52.040;113.502;2023-01-29T04:10:51;14.80;;;5.43;;
75837;SDS011;64480;52.040;113.502;2023-01-29T04:13:59;17.52;;;5.82;;
75837;SDS011;64480;52.040;113.502;2023-01-29T04:17:26;14.52;;;5.97;;
75837;SDS011;64480;52.040;113.502;2023-01-29T04:20:48;14.35;;;6.35;;
75837;SDS011;64480;52.040;113.502;2023-01-29T04:23:58;4.95;;;2.17;;
75837;SDS011;64480;52.040;113.502;2023-01-29T04:28:08;6.03;;;2.80;;
75837;SDS011;64480;52.040;113.502;2023-01-29T04:31:56;8.82;;;3.05;;
75837;SDS011;64480;52.040;113.502;2023-01-29T04:35:28;6.43;;;2.85;;
75837;SDS011;64480;52.040;113.502;2023-01-29T04:42:53;2.67;;;1.45;;
75837;SDS011;64480;52.040;113.502;2023-01-29T04:47:04;4.57;;;1.63;;
75837;SDS011;64480;52.040;113.502;2023-01-29T04:51:01;3.42;;;1.20;;
75837;SDS011;64480;52.040;113.502;2023-01-29T04:55:06;8.90;;;3.70;;
75837;SDS011;64480;52.040;113.502;2023-01-29T04:58:44;4.72;;;1.40;;
75837;SDS011;64480;52.040;113.502;2023-01-29T05:02:11;3.97;;;1.85;;
75837;SDS011;64480;52.040;113.502;2023-01-29T05:05:20;7.13;;;2.28;;
75837;SDS011;64480;52.040;113.502;2023-01-29T05:08:29;9.88;;;3.42;;
75837;SDS011;64480;52.040;113.502;2023-01-29T05:11:35;4.45;;;1.88;;
75837;SDS011;64480;52.040;113.502;2023-01-29T05:14:53;5.35;;;2.33;;
75837;SDS011;64480;52.040;113.502;2023-01-29T05:18:05;6.60;;;2.35;;
75837;SDS011;64480;52.040;113.502;2023-01-29T05:21:12;5.40;;;2.03;;
75837;SDS011;64480;52.040;113.502;2023-01-29T05:24:18;6.40;;;2.22;;
75837;SDS011;64480;52.040;113.502;2023-01-29T05:27:38;7.45;;;3.40;;
75837;SDS011;64480;52.040;113.502;2023-01-29T05:31:11;7.13;;;3.00;;
75837;SDS011;64480;52.040;113.502;2023-01-29T05:34:16;11.07;;;4.50;;
75837;SDS011;64480;52.040;113.502;2023-01-29T05:37:22;10.77;;;3.28;;
75837;SDS011;64480;52.040;113.502;2023-01-29T05:40:28;2.33;;;1.42;;
75837;SDS011;64480;52.040;113.502;2023-01-29T05:43:46;3.78;;;1.52;;
75837;SDS011;64480;52.040;113.502;2023-01-29T05:47:03;1.77;;;1.05;;
75837;SDS011;64480;52.040;113.502;2023-01-29T05:50:22;7.03;;;2.90;;
75837;SDS011;64480;52.040;113.502;2023-01-29T05:53:29;4.53;;;2.05;;
75837;SDS011;64480;52.040;113.502;2023-01-29T05:56:44;4.07;;;1.45;;
75837;SDS011;64480;52.040;113.502;2023-01-29T05:59:54;5.22;;;2.25;;
75837;SDS011;64480;52.040;113.502;2023-01-29T06:03:00;13.63;;;3.92;;
75837;SDS011;64480;52.040;113.502;2023-01-29T06:06:08;4.45;;;1.58;;
75837;SDS011;64480;52.040;113.502;2023-01-29T06:09:28;2.30;;;1.15;;
75837;SDS011;64480;52.040;113.502;2023-01-29T06:12:40;4.10;;;1.33;;
75837;SDS011;64480;52.040;113.502;2023-01-29T06:15:56;6.13;;;2.20;;
75837;SDS011;64480;52.040;113.502;2023-01-29T06:19:23;3.33;;;1.35;;
75837;SDS011;64480;52.040;113.502;2023-01-29T06:22:28;4.22;;;1.50;;
75837;SDS011;64480;52.040;113.502;2023-01-29T06:25:46;2.35;;;0.85;;
75837;SDS011;64480;52.040;113.502;2023-01-29T06:29:04;2.58;;;1.20;;
75837;SDS011;64480;52.040;113.502;2023-01-29T06:32:22;6.88;;;1.42;;
75837;SDS011;64480;52.040;113.502;2023-01-29T06:35:39;2.97;;;1.35;;
75837;SDS011;64480;52.040;113.502;2023-01-29T06:38:57;4.10;;;1.13;;
75837;SDS011;64480;52.040;113.502;2023-01-29T06:42:07;1.65;;;0.73;;
75837;SDS011;64480;52.040;113.502;2023-01-29T06:45:22;5.55;;;1.58;;
75837;SDS011;64480;52.040;113.502;2023-01-29T06:48:45;6.07;;;2.50;;
75837;SDS011;64480;52.040;113.502;2023-01-29T06:52:02;6.93;;;2.08;;
75837;SDS011;64480;52.040;113.502;2023-01-29T06:55:33;5.90;;;2.60;;
75837;SDS011;64480;52.040;113.502;2023-01-29T06:58:39;5.63;;;2.45;;
75837;SDS011;64480;52.040;113.502;2023-01-29T07:01:58;4.25;;;1.48;;
75837;SDS011;64480;52.040;113.502;2023-01-29T07:05:15;6.63;;;2.25;;
75837;SDS011;64480;52.040;113.502;2023-01-29T07:22:12;3.88;;;1.52;;
75837;SDS011;64480;52.040;113.502;2023-01-29T07:25:23;4.15;;;1.88;;
75837;SDS011;64480;52.040;113.502;2023-01-29T07:28:36;3.80;;;1.85;;
75837;SDS011;64480;52.040;113.502;2023-01-29T07:31:48;2.88;;;1.65;;
75837;SDS011;64480;52.040;113.502;2023-01-29T07:34:53;5.97;;;2.33;;
75837;SDS011;64480;52.040;113.502;2023-01-29T07:38:00;5.93;;;2.15;;
75837;SDS011;64480;52.040;113.502;2023-01-29T07:41:19;11.90;;;3.08;;
75837;SDS011;64480;52.040;113.502;2023-01-29T07:44:23;11.63;;;4.13;;
75837;SDS011;64480;52.040;113.502;2023-01-29T07:47:44;9.27;;;3.42;;
75837;SDS011;64480;52.040;113.502;2023-01-29T07:50:56;13.77;;;4.75;;
75837;SDS011;64480;52.040;113.502;2023-01-29T07:54:07;11.65;;;3.05;;
75837;SDS011;64480;52.040;113.502;2023-01-29T07:57:14;11.40;;;3.58;;
75837;SDS011;64480;52.040;113.502;2023-01-29T08:00:26;13.38;;;3.90;;
75837;SDS011;64480;52.040;113.502;2023-01-29T08:03:32;5.53;;;2.67;;
75837;SDS011;64480;52.040;113.502;2023-01-29T08:06:52;5.78;;;3.20;;
75837;SDS011;64480;52.040;113.502;2023-01-29T08:09:57;10.55;;;3.83;;
75837;SDS011;64480;52.040;113.502;2023-01-29T08:13:04;6.13;;;2.53;;
75837;SDS011;64480;52.040;113.502;2023-01-29T08:16:13;15.32;;;5.05;;
75837;SDS011;64480;52.040;113.502;2023-01-29T08:19:30;14.23;;;5.72;;
75837;SDS011;64480;52.040;113.502;2023-01-29T08:23:04;17.77;;;5.45;;
75837;SDS011;64480;52.040;113.502;2023-01-29T08:26:27;18.42;;;5.90;;
75837;SDS011;64480;52.040;113.502;2023-01-29T08:29:39;28.38;;;7.93;;
75837;SDS011;64480;52.040;113.502;2023-01-29T08:32:44;18.60;;;7.28;;
75837;SDS011;64480;52.040;113.502;2023-01-29T08:36:08;23.15;;;7.70;;
75837;SDS011;64480;52.040;113.502;2023-01-29T08:39:30;39.33;;;14.32;;
75837;SDS011;64480;52.040;113.502;2023-01-29T08:42:35;46.00;;;17.80;;
75837;SDS011;64480;52.040;113.502;2023-01-29T08:45:53;55.30;;;20.77;;
75837;SDS011;64480;52.040;113.502;2023-01-29T08:49:03;41.95;;;16.05;;
75837;SDS011;64480;52.040;113.502;2023-01-29T08:52:12;42.42;;;14.73;;
75837;SDS011;64480;52.040;113.502;2023-01-29T08:55:29;41.42;;;15.00;;
75837;SDS011;64480;52.040;113.502;2023-01-29T08:58:37;48.63;;;15.15;;
75837;SDS011;64480;52.040;113.502;2023-01-29T09:02:15;43.10;;;17.23;;
75837;SDS011;64480;52.040;113.502;2023-01-29T09:05:53;51.15;;;18.88;;
75837;SDS011;64480;52.040;113.502;2023-01-29T09:09:14;44.97;;;18.00;;
75837;SDS011;64480;52.040;113.502;2023-01-29T09:12:20;34.30;;;14.43;;
75837;SDS011;64480;52.040;113.502;2023-01-29T09:15:44;37.92;;;14.20;;
75837;SDS011;64480;52.040;113.502;2023-01-29T09:19:08;37.45;;;14.38;;
75837;SDS011;64480;52.040;113.502;2023-01-29T09:22:44;38.22;;;13.55;;
75837;SDS011;64480;52.040;113.502;2023-01-29T09:29:28;23.90;;;10.23;;
75837;SDS011;64480;52.040;113.502;2023-01-29T09:32:37;19.90;;;7.63;;
75837;SDS011;64480;52.040;113.502;2023-01-29T09:35:56;29.48;;;9.60;;
75837;SDS011;64480;52.040;113.502;2023-01-29T09:39:05;26.27;;;10.25;;
75837;SDS011;64480;52.040;113.502;2023-01-29T09:45:27;31.83;;;12.85;;
75837;SDS011;64480;52.040;113.502;2023-01-29T09:48:34;25.15;;;9.02;;
75837;SDS011;64480;52.040;113.502;2023-01-29T09:51:40;22.45;;;9.05;;
75837;SDS011;64480;52.040;113.502;2023-01-29T09:58:13;28.02;;;11.57;;
75837;SDS011;64480;52.040;113.502;2023-01-29T10:01:41;34.67;;;12.38;;
75837;SDS011;64480;52.040;113.502;2023-01-29T10:05:50;30.65;;;10.70;;
75837;SDS011;64480;52.040;113.502;2023-01-29T10:16:22;36.22;;;12.20;;
75837;SDS011;64480;52.040;113.502;2023-01-29T10:22:47;47.40;;;15.63;;
75837;SDS011;64480;52.040;113.502;2023-01-29T10:26:39;46.78;;;16.02;;
75837;SDS011;64480;52.040;113.502;2023-01-29T10:29:57;36.42;;;15.98;;
75837;SDS011;64480;52.040;113.502;2023-01-29T10:33:09;44.45;;;12.38;;
75837;SDS011;64480;52.040;113.502;2023-01-29T10:36:34;38.03;;;16.13;;
75837;SDS011;64480;52.040;113.502;2023-01-29T10:40:01;55.53;;;19.38;;
75837;SDS011;64480;52.040;113.502;2023-01-29T10:43:45;65.43;;;22.08;;
75837;SDS011;64480;52.040;113.502;2023-01-29T10:47:21;64.18;;;21.00;;
75837;SDS011;64480;52.040;113.502;2023-01-29T10:50:51;61.17;;;22.13;;
75837;SDS011;64480;52.040;113.502;2023-01-29T10:54:26;56.92;;;19.58;;
75837;SDS011;64480;52.040;113.502;2023-01-29T11:01:07;58.10;;;21.45;;
75837;SDS011;64480;52.040;113.502;2023-01-29T11:04:26;87.10;;;24.83;;
75837;SDS011;64480;52.040;113.502;2023-01-29T11:07:34;78.85;;;22.45;;
75837;SDS011;64480;52.040;113.502;2023-01-29T11:10:49;77.65;;;23.67;;
75837;SDS011;64480;52.040;113.502;2023-01-29T11:14:30;56.60;;;17.05;;
75837;SDS011;64480;52.040;113.502;2023-01-29T11:21:24;66.35;;;19.98;;
75837;SDS011;64480;52.040;113.502;2023-01-29T11:27:42;51.95;;;18.15;;
75837;SDS011;64480;52.040;113.502;2023-01-29T11:30:47;55.05;;;19.17;;
75837;SDS011;64480;52.040;113.502;2023-01-29T11:34:15;42.33;;;15.75;;
75837;SDS011;64480;52.040;113.502;2023-01-29T11:37:33;48.15;;;14.35;;
75837;SDS011;64480;52.040;113.502;2023-01-29T11:40:39;44.17;;;16.38;;
75837;SDS011;64480;52.040;113.502;2023-01-29T11:43:45;51.92;;;17.58;;
75837;SDS011;64480;52.040;113.502;2023-01-29T11:46:52;34.45;;;13.25;;
75837;SDS011;64480;52.040;113.502;2023-01-29T11:50:17;37.08;;;14.30;;
75837;SDS011;64480;52.040;113.502;2023-01-29T11:53:35;29.50;;;10.90;;
75837;SDS011;64480;52.040;113.502;2023-01-29T11:56:45;30.17;;;9.75;;
75837;SDS011;64480;52.040;113.502;2023-01-29T12:03:35;21.90;;;8.88;;
75837;SDS011;64480;52.040;113.502;2023-01-29T12:07:01;18.08;;;7.57;;
75837;SDS011;64480;52.040;113.502;2023-01-29T12:10:31;19.83;;;7.82;;
75837;SDS011;64480;52.040;113.502;2023-01-29T12:13:41;10.82;;;5.72;;
75837;SDS011;64480;52.040;113.502;2023-01-29T12:20:19;33.53;;;12.07;;
75837;SDS011;64480;52.040;113.502;2023-01-29T12:23:34;30.35;;;11.52;;
75837;SDS011;64480;52.040;113.502;2023-01-29T12:34:26;65.13;;;22.83;;
75837;SDS011;64480;52.040;113.502;2023-01-29T12:37:57;65.53;;;21.35;;
75837;SDS011;64480;52.040;113.502;2023-01-29T12:44:41;107.72;;;36.35;;
75837;SDS011;64480;52.040;113.502;2023-01-29T12:47:58;62.97;;;23.02;;
75837;SDS011;64480;52.040;113.502;2023-01-29T12:51:36;60.22;;;20.52;;
75837;SDS011;64480;52.040;113.502;2023-01-29T12:55:01;84.55;;;31.85;;
75837;SDS011;64480;52.040;113.502;2023-01-29T12:58:28;101.68;;;32.63;;
75837;SDS011;64480;52.040;113.502;2023-01-29T13:01:51;111.70;;;39.75;;
75837;SDS011;64480;52.040;113.502;2023-01-29T13:08:40;104.32;;;35.35;;
75837;SDS011;64480;52.040;113.502;2023-01-29T13:12:15;125.85;;;44.03;;
75837;SDS011;64480;52.040;113.502;2023-01-29T13:15:32;117.75;;;43.03;;
75837;SDS011;64480;52.040;113.502;2023-01-29T13:22:05;115.78;;;43.17;;
75837;SDS011;64480;52.040;113.502;2023-01-29T13:25:24;122.97;;;45.85;;
75837;SDS011;64480;52.040;113.502;2023-01-29T13:28:41;125.15;;;46.78;;
75837;SDS011;64480;52.040;113.502;2023-01-29T13:32:08;111.97;;;39.35;;
75837;SDS011;64480;52.040;113.502;2023-01-29T13:35:17;105.28;;;35.28;;
75837;SDS011;64480;52.040;113.502;2023-01-29T13:38:37;76.38;;;30.95;;
75837;SDS011;64480;52.040;113.502;2023-01-29T13:41:46;75.10;;;29.10;;
75837;SDS011;64480;52.040;113.502;2023-01-29T13:44:54;56.28;;;23.98;;
75837;SDS011;64480;52.040;113.502;2023-01-29T13:51:40;56.50;;;20.17;;
75837;SDS011;64480;52.040;113.502;2023-01-29T13:54:57;45.38;;;18.90;;
75837;SDS011;64480;52.040;113.502;2023-01-29T14:08:54;50.30;;;18.75;;
75837;SDS011;64480;52.040;113.502;2023-01-29T14:12:30;64.03;;;22.63;;
75837;SDS011;64480;52.040;113.502;2023-01-29T14:15:37;61.17;;;22.52;;
75837;SDS011;64480;52.040;113.502;2023-01-29T14:18:59;87.65;;;28.45;;
75837;SDS011;64480;52.040;113.502;2023-01-29T14:22:17;114.97;;;40.05;;
75837;SDS011;64480;52.040;113.502;2023-01-29T14:25:33;107.15;;;39.65;;
75837;SDS011;64480;52.040;113.502;2023-01-29T14:29:30;123.97;;;38.60;;
75837;SDS011;64480;52.040;113.502;2023-01-29T14:32:27;111.68;;;34.30;;
75837;SDS011;64480;52.040;113.502;2023-01-29T14:35:57;80.93;;;29.23;;
75837;SDS011;64480;52.040;113.502;2023-01-29T14:49:55;84.88;;;31.98;;
75837;SDS011;64480;52.040;113.502;2023-01-29T14:54:26;140.55;;;42.95;;
75837;SDS011;64480;52.040;113.502;2023-01-29T14:57:38;119.90;;;45.47;;
75837;SDS011;64480;52.040;113.502;2023-01-29T15:00:45;128.77;;;49.22;;
75837;SDS011;64480;52.040;113.502;2023-01-29T15:07:38;139.73;;;50.95;;
75837;SDS011;64480;52.040;113.502;2023-01-29T15:10:52;128.50;;;46.17;;
75837;SDS011;64480;52.040;113.502;2023-01-29T15:14:32;123.63;;;44.03;;
75837;SDS011;64480;52.040;113.502;2023-01-29T15:18:00;93.93;;;31.92;;
75837;SDS011;64480;52.040;113.502;2023-01-29T15:21:16;120.13;;;39.33;;
75837;SDS011;64480;52.040;113.502;2023-01-29T15:24:20;102.47;;;37.58;;
75837;SDS011;64480;52.040;113.502;2023-01-29T15:27:34;98.13;;;38.15;;
75837;SDS011;64480;52.040;113.502;2023-01-29T15:30:39;124.22;;;42.92;;
75837;SDS011;64480;52.040;113.502;2023-01-29T15:33:47;107.90;;;38.67;;
75837;SDS011;64480;52.040;113.502;2023-01-29T15:36:56;118.22;;;37.63;;
75837;SDS011;64480;52.040;113.502;2023-01-29T15:40:13;105.63;;;37.60;;
75837;SDS011;64480;52.040;113.502;2023-01-29T15:43:20;98.68;;;33.65;;
75837;SDS011;64480;52.040;113.502;2023-01-29T15:46:35;98.15;;;30.98;;
75837;SDS011;64480;52.040;113.502;2023-01-29T15:49:42;113.22;;;37.35;;
75837;SDS011;64480;52.040;113.502;2023-01-29T15:52:50;119.43;;;37.15;;
75837;SDS011;64480;52.040;113.502;2023-01-29T15:56:00;102.82;;;40.55;;
75837;SDS011;64480;52.040;113.502;2023-01-29T15:59:17;120.07;;;38.85;;
75837;SDS011;64480;52.040;113.502;2023-01-29T16:02:39;104.43;;;39.28;;
75837;SDS011;64480;52.040;113.502;2023-01-29T16:05:44;98.68;;;33.67;;
75837;SDS011;64480;52.040;113.502;2023-01-29T16:08:56;82.72;;;32.10;;
75837;SDS011;64480;52.040;113.502;2023-01-29T16:12:01;86.90;;;31.25;;
75837;SDS011;64480;52.040;113.502;2023-01-29T16:15:09;95.25;;;37.33;;
75837;SDS011;64480;52.040;113.502;2023-01-29T16:18:23;112.53;;;43.22;;
75837;SDS011;64480;52.040;113.502;2023-01-29T16:21:38;183.32;;;56.88;;
75837;SDS011;64480;52.040;113.502;2023-01-29T16:24:50;117.53;;;43.33;;
75837;SDS011;64480;52.040;113.502;2023-01-29T16:27:56;137.98;;;45.88;;
75837;SDS011;64480;52.040;113.502;2023-01-29T16:31:02;112.88;;;37.45;;
75837;SDS011;64480;52.040;113.502;2023-01-29T16:34:08;120.85;;;43.13;;
75837;SDS011;64480;52.040;113.502;2023-01-29T16:43:44;137.75;;;51.60;;
75837;SDS011;64480;52.040;113.502;2023-01-29T16:47:13;156.63;;;49.10;;
75837;SDS011;64480;52.040;113.502;2023-01-29T16:50:32;107.25;;;40.10;;
75837;SDS011;64480;52.040;113.502;2023-01-29T16:54:07;143.05;;;46.45;;
75837;SDS011;64480;52.040;113.502;2023-01-29T16:57:26;215.35;;;75.07;;
75837;SDS011;64480;52.040;113.502;2023-01-29T17:00:35;190.23;;;65.25;;
75837;SDS011;64480;52.040;113.502;2023-01-29T17:03:39;128.80;;;49.80;;
75837;SDS011;64480;52.040;113.502;2023-01-29T17:06:55;90.68;;;35.83;;
75837;SDS011;64480;52.040;113.502;2023-01-29T17:10:01;94.88;;;37.55;;
75837;SDS011;64480;52.040;113.502;2023-01-29T17:13:08;91.82;;;28.25;;
75837;SDS011;64480;52.040;113.502;2023-01-29T17:16:26;88.65;;;32.55;;
75837;SDS011;64480;52.040;113.502;2023-01-29T17:19:38;130.15;;;43.33;;
75837;SDS011;64480;52.040;113.502;2023-01-29T17:22:43;96.47;;;38.33;;
75837;SDS011;64480;52.040;113.502;2023-01-29T17:25:49;123.63;;;44.85;;
75837;SDS011;64480;52.040;113.502;2023-01-29T17:29:01;78.63;;;27.77;;
75837;SDS011;64480;52.040;113.502;2023-01-29T17:32:10;76.97;;;24.77;;
75837;SDS011;64480;52.040;113.502;2023-01-29T17:35:20;62.92;;;25.65;;
75837;SDS011;64480;52.040;113.502;2023-01-29T17:38:24;88.43;;;25.13;;
75837;SDS011;64480;52.040;113.502;2023-01-29T17:41:28;63.72;;;23.55;;
75837;SDS011;64480;52.040;113.502;2023-01-29T17:44:35;38.28;;;17.42;;
75837;SDS011;64480;52.040;113.502;2023-01-29T17:47:51;89.95;;;28.70;;
75837;SDS011;64480;52.040;113.502;2023-01-29T17:50:58;59.63;;;22.02;;
75837;SDS011;64480;52.040;113.502;2023-01-29T17:54:09;52.83;;;20.00;;
75837;SDS011;64480;52.040;113.502;2023-01-29T17:57:26;85.10;;;31.58;;
75837;SDS011;64480;52.040;113.502;2023-01-29T18:00:42;69.05;;;24.70;;
75837;SDS011;64480;52.040;113.502;2023-01-29T18:03:48;43.90;;;17.08;;
75837;SDS011;64480;52.040;113.502;2023-01-29T18:06:53;74.30;;;28.10;;
75837;SDS011;64480;52.040;113.502;2023-01-29T18:10:03;122.78;;;42.33;;
75837;SDS011;64480;52.040;113.502;2023-01-29T18:13:11;70.47;;;23.73;;
75837;SDS011;64480;52.040;113.502;2023-01-29T18:16:23;77.43;;;32.13;;
75837;SDS011;64480;52.040;113.502;2023-01-29T18:19:42;52.60;;;24.52;;
75837;SDS011;64480;52.040;113.502;2023-01-29T18:22:50;90.60;;;33.13;;
75837;SDS011;64480;52.040;113.502;2023-01-29T18:25:55;106.07;;;41.28;;
75837;SDS011;64480;52.040;113.502;2023-01-29T18:29:00;89.45;;;28.42;;
75837;SDS011;64480;52.040;113.502;2023-01-29T18:32:18;92.20;;;33.63;;
75837;SDS011;64480;52.040;113.502;2023-01-29T18:35:35;107.70;;;38.35;;
75837;SDS011;64480;52.040;113.502;2023-01-29T18:38:39;65.13;;;27.83;;
75837;SDS011;64480;52.040;113.502;2023-01-29T18:41:47;88.78;;;33.92;;
75837;SDS011;64480;52.040;113.502;2023-01-29T18:44:54;99.70;;;34.38;;
75837;SDS011;64480;52.040;113.502;2023-01-29T18:47:57;79.78;;;31.40;;
75837;SDS011;64480;52.040;113.502;2023-01-29T18:51:03;84.55;;;27.50;;
75837;SDS011;64480;52.040;113.502;2023-01-29T18:54:09;72.40;;;27.25;;
75837;SDS011;64480;52.040;113.502;2023-01-29T18:57:16;48.03;;;23.08;;
75837;SDS011;64480;52.040;113.502;2023-01-29T19:00:40;101.07;;;33.13;;
75837;SDS011;64480;52.040;113.502;2023-01-29T19:03:45;98.75;;;34.95;;
75837;SDS011;64480;52.040;113.502;2023-01-29T19:07:02;110.00;;;34.97;;
75837;SDS011;64480;52.040;113.502;2023-01-29T19:10:20;54.60;;;22.73;;
75837;SDS011;64480;52.040;113.502;2023-01-29T19:13:24;99.65;;;36.65;;
75837;SDS011;64480;52.040;113.502;2023-01-29T19:16:29;97.90;;;47.13;;
75837;SDS011;64480;52.040;113.502;2023-01-29T19:19:35;136.32;;;46.95;;
75837;SDS011;64480;52.040;113.502;2023-01-29T19:22:39;113.75;;;45.35;;
75837;SDS011;64480;52.040;113.502;2023-01-29T19:25:46;29.23;;;12.63;;
75837;SDS011;64480;52.040;113.502;2023-01-29T19:28:52;26.10;;;10.48;;
75837;SDS011;64480;52.040;113.502;2023-01-29T19:32:03;22.33;;;7.63;;
75837;SDS011;64480;52.040;113.502;2023-01-29T19:35:09;25.35;;;10.40;;
75837;SDS011;64480;52.040;113.502;2023-01-29T19:38:16;27.05;;;10.90;;
75837;SDS011;64480;52.040;113.502;2023-01-29T19:41:22;33.30;;;11.63;;
75837;SDS011;64480;52.040;113.502;2023-01-29T19:44:29;19.60;;;8.93;;
75837;SDS011;64480;52.040;113.502;2023-01-29T19:47:40;15.23;;;8.20;;
75837;SDS011;64480;52.040;113.502;2023-01-29T19:50:49;11.30;;;6.47;;
75837;SDS011;64480;52.040;113.502;2023-01-29T19:54:11;24.80;;;9.52;;
75837;SDS011;64480;52.040;113.502;2023-01-29T19:57:16;23.73;;;11.73;;
75837;SDS011;64480;52.040;113.502;2023-01-29T20:00:19;22.60;;;10.60;;
75837;SDS011;64480;52.040;113.502;2023-01-29T20:03:24;30.98;;;13.82;;
75837;SDS011;64480;52.040;113.502;2023-01-29T20:06:29;30.38;;;13.15;;
75837;SDS011;64480;52.040;113.502;2023-01-29T20:09:33;36.15;;;16.13;;
75837;SDS011;64480;52.040;113.502;2023-01-29T20:12:37;42.97;;;18.27;;
75837;SDS011;64480;52.040;113.502;2023-01-29T20:15:47;50.78;;;23.27;;
75837;SDS011;64480;52.040;113.502;2023-01-29T20:18:56;46.72;;;18.05;;
75837;SDS011;64480;52.040;113.502;2023-01-29T20:22:13;60.22;;;21.60;;
75837;SDS011;64480;52.040;113.502;2023-01-29T20:25:21;39.58;;;17.55;;
75837;SDS011;64480;52.040;113.502;2023-01-29T20:28:33;38.20;;;18.63;;
75837;SDS011;64480;52.040;113.502;2023-01-29T20:31:37;51.22;;;19.13;;
75837;SDS011;64480;52.040;113.502;2023-01-29T20:34:41;55.83;;;23.65;;
75837;SDS011;64480;52.040;113.502;2023-01-29T20:37:49;64.40;;;27.80;;
75837;SDS011;64480;52.040;113.502;2023-01-29T20:40:54;62.58;;;22.30;;
75837;SDS011;64480;52.040;113.502;2023-01-29T20:44:17;64.40;;;22.70;;
75837;SDS011;64480;52.040;113.502;2023-01-29T20:47:29;62.55;;;25.42;;
75837;SDS011;64480;52.040;113.502;2023-01-29T20:50:33;102.70;;;41.78;;
75837;SDS011;64480;52.040;113.502;2023-01-29T20:53:41;105.70;;;40.78;;
75837;SDS011;64480;52.040;113.502;2023-01-29T20:56:48;79.57;;;32.15;;
75837;SDS011;64480;52.040;113.502;2023-01-29T21:00:05;56.55;;;25.50;;
75837;SDS011;64480;52.040;113.502;2023-01-29T21:03:12;66.10;;;29.83;;